sensor_id;sensor_type;location;lat;lon;timestamp;P1;durP1;ratioP1;P2;durP2;ratioP2
68250;SDS011;55066;51.560;4.642;2023-06-22T00:02:15;4.40;;;2.20;;
68250;SDS011;55066;51.560;4.642;2023-06-22T00:04:42;4.57;;;2.55;;
68250;SDS011;55066;51.560;4.642;2023-06-22T00:07:10;4.20;;;2.30;;
68250;SDS011;55066;51.560;4.642;2023-06-22T00:09:37;5.87;;;2.60;;
68250;SDS011;55066;51.560;4.642;2023-06-22T00:12:03;6.55;;;2.38;;
68250;SDS011;55066;51.560;4.642;2023-06-22T00:14:29;3.77;;;2.10;;
68250;SDS011;55066;51.560;4.642;2023-06-22T00:16:56;4.50;;;2.40;;
68250;SDS011;55066;51.560;4.642;2023-06-22T00:19:22;4.40;;;2.05;;
68250;SDS011;55066;51.560;4.642;2023-06-22T00:21:49;4.50;;;2.50;;
68250;SDS011;55066;51.560;4.642;2023-06-22T00:24:20;5.57;;;2.30;;
68250;SDS011;55066;51.560;4.642;2023-06-22T00:26:46;4.97;;;2.53;;
68250;SDS011;55066;51.560;4.642;2023-06-22T00:29:13;4.60;;;2.25;;
68250;SDS011;55066;51.560;4.642;2023-06-22T00:31:39;5.60;;;2.70;;
68250;SDS011;55066;51.560;4.642;2023-06-22T00:34:04;5.25;;;2.80;;
68250;SDS011;55066;51.560;4.642;2023-06-22T00:36:32;7.17;;;2.23;;
68250;SDS011;55066;51.560;4.642;2023-06-22T00:38:58;4.50;;;2.05;;
68250;SDS011;55066;51.560;4.642;2023-06-22T00:41:23;4.53;;;2.20;;
68250;SDS011;55066;51.560;4.642;2023-06-22T00:43:48;5.27;;;2.67;;
68250;SDS011;55066;51.560;4.642;2023-06-22T00:46:14;5.70;;;3.00;;
68250;SDS011;55066;51.560;4.642;2023-06-22T00:48:42;6.18;;;2.75;;
68250;SDS011;55066;51.560;4.642;2023-06-22T00:51:10;5.53;;;3.15;;
68250;SDS011;55066;51.560;4.642;2023-06-22T00:53:37;6.05;;;3.17;;
68250;SDS011;55066;51.560;4.642;2023-06-22T00:56:03;6.37;;;3.40;;
68250;SDS011;55066;51.560;4.642;2023-06-22T00:58:30;6.88;;;3.42;;
68250;SDS011;55066;51.560;4.642;2023-06-22T01:00:56;5.33;;;2.67;;
68250;SDS011;55066;51.560;4.642;2023-06-22T01:03:26;7.60;;;2.90;;
68250;SDS011;55066;51.560;4.642;2023-06-22T01:05:51;6.43;;;3.20;;
68250;SDS011;55066;51.560;4.642;2023-06-22T01:08:42;6.72;;;3.05;;
68250;SDS011;55066;51.560;4.642;2023-06-22T01:11:19;6.32;;;3.05;;
68250;SDS011;55066;51.560;4.642;2023-06-22T01:16:56;7.20;;;3.80;;
68250;SDS011;55066;51.560;4.642;2023-06-22T01:19:28;6.60;;;3.78;;
68250;SDS011;55066;51.560;4.642;2023-06-22T01:22:04;7.13;;;3.85;;
68250;SDS011;55066;51.560;4.642;2023-06-22T01:30:25;6.77;;;3.00;;
68250;SDS011;55066;51.560;4.642;2023-06-22T01:32:53;6.47;;;3.60;;
68250;SDS011;55066;51.560;4.642;2023-06-22T01:35:20;8.30;;;4.30;;
68250;SDS011;55066;51.560;4.642;2023-06-22T01:37:46;7.53;;;4.18;;
68250;SDS011;55066;51.560;4.642;2023-06-22T01:40:14;8.48;;;4.53;;
68250;SDS011;55066;51.560;4.642;2023-06-22T01:42:40;10.97;;;5.07;;
68250;SDS011;55066;51.560;4.642;2023-06-22T01:45:08;9.63;;;4.95;;
68250;SDS011;55066;51.560;4.642;2023-06-22T01:47:36;9.30;;;4.68;;
68250;SDS011;55066;51.560;4.642;2023-06-22T01:50:04;12.45;;;5.13;;
68250;SDS011;55066;51.560;4.642;2023-06-22T01:52:33;8.07;;;4.35;;
68250;SDS011;55066;51.560;4.642;2023-06-22T01:55:00;10.43;;;5.40;;
68250;SDS011;55066;51.560;4.642;2023-06-22T01:57:26;10.13;;;5.00;;
68250;SDS011;55066;51.560;4.642;2023-06-22T02:00:11;12.27;;;5.30;;
68250;SDS011;55066;51.560;4.642;2023-06-22T02:02:50;9.45;;;5.22;;
68250;SDS011;55066;51.560;4.642;2023-06-22T02:05:19;11.93;;;6.28;;
68250;SDS011;55066;51.560;4.642;2023-06-22T02:07:48;11.67;;;6.23;;
68250;SDS011;55066;51.560;4.642;2023-06-22T02:10:19;10.85;;;5.57;;
68250;SDS011;55066;51.560;4.642;2023-06-22T02:12:46;10.23;;;6.00;;
68250;SDS011;55066;51.560;4.642;2023-06-22T02:15:13;12.60;;;5.68;;
68250;SDS011;55066;51.560;4.642;2023-06-22T02:17:39;11.45;;;6.00;;
68250;SDS011;55066;51.560;4.642;2023-06-22T02:20:13;11.83;;;6.17;;
68250;SDS011;55066;51.560;4.642;2023-06-22T02:22:40;9.73;;;5.40;;
68250;SDS011;55066;51.560;4.642;2023-06-22T02:25:09;14.52;;;6.82;;
68250;SDS011;55066;51.560;4.642;2023-06-22T02:27:34;14.63;;;7.10;;
68250;SDS011;55066;51.560;4.642;2023-06-22T02:30:00;11.37;;;6.33;;
68250;SDS011;55066;51.560;4.642;2023-06-22T02:32:25;13.20;;;6.95;;
68250;SDS011;55066;51.560;4.642;2023-06-22T02:34:51;16.37;;;7.87;;
68250;SDS011;55066;51.560;4.642;2023-06-22T02:37:18;13.52;;;7.50;;
68250;SDS011;55066;51.560;4.642;2023-06-22T02:39:53;11.18;;;5.85;;
68250;SDS011;55066;51.560;4.642;2023-06-22T02:42:18;12.87;;;6.57;;
68250;SDS011;55066;51.560;4.642;2023-06-22T02:44:47;12.63;;;7.55;;
68250;SDS011;55066;51.560;4.642;2023-06-22T02:47:13;15.00;;;8.00;;
68250;SDS011;55066;51.560;4.642;2023-06-22T02:49:40;14.48;;;7.88;;
68250;SDS011;55066;51.560;4.642;2023-06-22T02:52:07;13.93;;;7.27;;
68250;SDS011;55066;51.560;4.642;2023-06-22T02:54:34;15.68;;;8.90;;
68250;SDS011;55066;51.560;4.642;2023-06-22T02:56:59;15.55;;;8.98;;
68250;SDS011;55066;51.560;4.642;2023-06-22T02:59:29;14.07;;;7.87;;
68250;SDS011;55066;51.560;4.642;2023-06-22T03:02:01;16.30;;;9.40;;
68250;SDS011;55066;51.560;4.642;2023-06-22T03:04:30;17.73;;;9.65;;
68250;SDS011;55066;51.560;4.642;2023-06-22T03:06:57;15.10;;;7.97;;
68250;SDS011;55066;51.560;4.642;2023-06-22T03:09:28;15.77;;;8.90;;
68250;SDS011;55066;51.560;4.642;2023-06-22T03:11:54;13.20;;;7.33;;
68250;SDS011;55066;51.560;4.642;2023-06-22T03:14:24;15.73;;;9.15;;
68250;SDS011;55066;51.560;4.642;2023-06-22T03:16:52;15.32;;;8.60;;
68250;SDS011;55066;51.560;4.642;2023-06-22T03:19:21;17.05;;;9.20;;
68250;SDS011;55066;51.560;4.642;2023-06-22T03:21:47;18.58;;;9.88;;
68250;SDS011;55066;51.560;4.642;2023-06-22T03:24:12;17.63;;;9.10;;
68250;SDS011;55066;51.560;4.642;2023-06-22T03:26:39;20.13;;;10.10;;
68250;SDS011;55066;51.560;4.642;2023-06-22T03:29:05;17.47;;;10.00;;
68250;SDS011;55066;51.560;4.642;2023-06-22T03:31:30;18.77;;;9.87;;
68250;SDS011;55066;51.560;4.642;2023-06-22T03:33:56;20.10;;;11.38;;
68250;SDS011;55066;51.560;4.642;2023-06-22T03:36:22;18.10;;;10.45;;
68250;SDS011;55066;51.560;4.642;2023-06-22T03:38:49;19.57;;;10.73;;
68250;SDS011;55066;51.560;4.642;2023-06-22T03:41:16;18.13;;;9.23;;
68250;SDS011;55066;51.560;4.642;2023-06-22T03:43:42;17.57;;;10.00;;
68250;SDS011;55066;51.560;4.642;2023-06-22T03:46:08;18.88;;;10.20;;
68250;SDS011;55066;51.560;4.642;2023-06-22T03:48:35;20.10;;;11.13;;
68250;SDS011;55066;51.560;4.642;2023-06-22T03:51:00;17.43;;;11.00;;
68250;SDS011;55066;51.560;4.642;2023-06-22T03:53:28;19.63;;;11.35;;
68250;SDS011;55066;51.560;4.642;2023-06-22T03:55:53;17.67;;;10.13;;
68250;SDS011;55066;51.560;4.642;2023-06-22T03:58:19;19.63;;;10.73;;
68250;SDS011;55066;51.560;4.642;2023-06-22T04:00:46;18.80;;;10.90;;
68250;SDS011;55066;51.560;4.642;2023-06-22T04:03:14;20.45;;;10.73;;
68250;SDS011;55066;51.560;4.642;2023-06-22T04:05:43;19.40;;;10.90;;
68250;SDS011;55066;51.560;4.642;2023-06-22T04:08:09;20.83;;;11.87;;
68250;SDS011;55066;51.560;4.642;2023-06-22T04:10:34;18.60;;;11.00;;
68250;SDS011;55066;51.560;4.642;2023-06-22T04:13:02;19.17;;;11.20;;
68250;SDS011;55066;51.560;4.642;2023-06-22T04:15:28;23.33;;;12.90;;
68250;SDS011;55066;51.560;4.642;2023-06-22T04:17:55;22.23;;;12.00;;
68250;SDS011;55066;51.560;4.642;2023-06-22T04:20:22;21.70;;;11.07;;
68250;SDS011;55066;51.560;4.642;2023-06-22T04:22:52;20.67;;;11.75;;
68250;SDS011;55066;51.560;4.642;2023-06-22T04:25:18;20.90;;;11.52;;
68250;SDS011;55066;51.560;4.642;2023-06-22T04:27:45;20.60;;;11.18;;
68250;SDS011;55066;51.560;4.642;2023-06-22T04:30:12;19.75;;;11.65;;
68250;SDS011;55066;51.560;4.642;2023-06-22T04:32:40;24.57;;;12.10;;
68250;SDS011;55066;51.560;4.642;2023-06-22T04:35:06;19.40;;;11.73;;
68250;SDS011;55066;51.560;4.642;2023-06-22T04:37:32;18.92;;;10.60;;
68250;SDS011;55066;51.560;4.642;2023-06-22T04:39:58;30.00;;;11.07;;
68250;SDS011;55066;51.560;4.642;2023-06-22T04:42:25;20.07;;;11.10;;
68250;SDS011;55066;51.560;4.642;2023-06-22T04:44:51;19.80;;;10.10;;
68250;SDS011;55066;51.560;4.642;2023-06-22T04:47:16;21.40;;;11.13;;
68250;SDS011;55066;51.560;4.642;2023-06-22T04:49:42;18.67;;;11.23;;
68250;SDS011;55066;51.560;4.642;2023-06-22T04:52:09;21.10;;;11.30;;
68250;SDS011;55066;51.560;4.642;2023-06-22T04:54:35;19.88;;;11.18;;
68250;SDS011;55066;51.560;4.642;2023-06-22T04:57:06;23.67;;;12.13;;
68250;SDS011;55066;51.560;4.642;2023-06-22T04:59:35;23.13;;;11.07;;
68250;SDS011;55066;51.560;4.642;2023-06-22T05:02:04;19.20;;;11.13;;
68250;SDS011;55066;51.560;4.642;2023-06-22T05:04:31;18.52;;;10.55;;
68250;SDS011;55066;51.560;4.642;2023-06-22T05:06:58;20.77;;;10.77;;
68250;SDS011;55066;51.560;4.642;2023-06-22T05:09:25;22.38;;;11.15;;
68250;SDS011;55066;51.560;4.642;2023-06-22T05:11:50;16.93;;;9.67;;
68250;SDS011;55066;51.560;4.642;2023-06-22T05:14:16;18.30;;;10.90;;
68250;SDS011;55066;51.560;4.642;2023-06-22T05:16:42;21.80;;;11.80;;
68250;SDS011;55066;51.560;4.642;2023-06-22T05:19:08;22.45;;;11.07;;
68250;SDS011;55066;51.560;4.642;2023-06-22T05:21:34;19.90;;;11.73;;
68250;SDS011;55066;51.560;4.642;2023-06-22T05:23:59;20.50;;;10.43;;
68250;SDS011;55066;51.560;4.642;2023-06-22T05:26:29;21.38;;;11.38;;
68250;SDS011;55066;51.560;4.642;2023-06-22T05:28:55;17.60;;;10.57;;
68250;SDS011;55066;51.560;4.642;2023-06-22T05:31:21;19.60;;;11.05;;
68250;SDS011;55066;51.560;4.642;2023-06-22T05:33:47;19.53;;;10.97;;
68250;SDS011;55066;51.560;4.642;2023-06-22T05:36:14;19.52;;;10.90;;
68250;SDS011;55066;51.560;4.642;2023-06-22T05:38:40;20.83;;;11.38;;
68250;SDS011;55066;51.560;4.642;2023-06-22T05:41:06;20.83;;;10.00;;
68250;SDS011;55066;51.560;4.642;2023-06-22T05:43:33;19.00;;;11.17;;
68250;SDS011;55066;51.560;4.642;2023-06-22T05:46:02;19.40;;;11.30;;
68250;SDS011;55066;51.560;4.642;2023-06-22T05:48:28;19.05;;;10.88;;
68250;SDS011;55066;51.560;4.642;2023-06-22T05:50:54;19.83;;;10.80;;
68250;SDS011;55066;51.560;4.642;2023-06-22T05:53:21;19.15;;;10.05;;
68250;SDS011;55066;51.560;4.642;2023-06-22T05:55:47;17.37;;;10.07;;
68250;SDS011;55066;51.560;4.642;2023-06-22T05:58:12;16.17;;;10.00;;
68250;SDS011;55066;51.560;4.642;2023-06-22T06:00:40;17.93;;;10.30;;
68250;SDS011;55066;51.560;4.642;2023-06-22T06:03:07;17.23;;;9.55;;
68250;SDS011;55066;51.560;4.642;2023-06-22T06:05:33;21.83;;;9.60;;
68250;SDS011;55066;51.560;4.642;2023-06-22T06:07:59;20.75;;;10.57;;
68250;SDS011;55066;51.560;4.642;2023-06-22T06:10:26;17.77;;;9.48;;
68250;SDS011;55066;51.560;4.642;2023-06-22T06:12:52;21.40;;;10.17;;
68250;SDS011;55066;51.560;4.642;2023-06-22T06:15:19;19.33;;;10.38;;
68250;SDS011;55066;51.560;4.642;2023-06-22T06:17:45;19.77;;;10.53;;
68250;SDS011;55066;51.560;4.642;2023-06-22T06:20:14;23.00;;;9.70;;
68250;SDS011;55066;51.560;4.642;2023-06-22T06:22:40;16.80;;;9.85;;
68250;SDS011;55066;51.560;4.642;2023-06-22T06:25:05;17.13;;;9.90;;
68250;SDS011;55066;51.560;4.642;2023-06-22T06:27:31;19.55;;;9.50;;
68250;SDS011;55066;51.560;4.642;2023-06-22T06:29:56;17.00;;;9.60;;
68250;SDS011;55066;51.560;4.642;2023-06-22T06:32:22;15.77;;;9.30;;
68250;SDS011;55066;51.560;4.642;2023-06-22T06:34:47;19.05;;;9.52;;
68250;SDS011;55066;51.560;4.642;2023-06-22T06:37:13;17.53;;;9.77;;
68250;SDS011;55066;51.560;4.642;2023-06-22T06:39:38;16.77;;;9.83;;
68250;SDS011;55066;51.560;4.642;2023-06-22T06:42:04;16.70;;;9.27;;
68250;SDS011;55066;51.560;4.642;2023-06-22T06:44:31;17.58;;;9.52;;
68250;SDS011;55066;51.560;4.642;2023-06-22T06:46:57;14.73;;;8.53;;
68250;SDS011;55066;51.560;4.642;2023-06-22T06:49:22;15.60;;;9.13;;
68250;SDS011;55066;51.560;4.642;2023-06-22T06:51:48;18.03;;;9.00;;
68250;SDS011;55066;51.560;4.642;2023-06-22T06:54:13;14.43;;;8.40;;
68250;SDS011;55066;51.560;4.642;2023-06-22T06:56:39;17.27;;;8.57;;
68250;SDS011;55066;51.560;4.642;2023-06-22T06:59:04;17.07;;;8.13;;
68250;SDS011;55066;51.560;4.642;2023-06-22T07:01:29;15.40;;;8.27;;
68250;SDS011;55066;51.560;4.642;2023-06-22T07:04:00;14.13;;;7.70;;
68250;SDS011;55066;51.560;4.642;2023-06-22T07:06:26;13.18;;;7.75;;
68250;SDS011;55066;51.560;4.642;2023-06-22T07:08:54;13.75;;;7.40;;
68250;SDS011;55066;51.560;4.642;2023-06-22T07:11:20;12.90;;;6.78;;
68250;SDS011;55066;51.560;4.642;2023-06-22T07:13:45;15.47;;;7.27;;
68250;SDS011;55066;51.560;4.642;2023-06-22T07:16:12;11.07;;;6.73;;
68250;SDS011;55066;51.560;4.642;2023-06-22T07:18:39;13.23;;;6.93;;
68250;SDS011;55066;51.560;4.642;2023-06-22T07:21:05;13.57;;;7.18;;
68250;SDS011;55066;51.560;4.642;2023-06-22T07:23:32;12.05;;;6.30;;
68250;SDS011;55066;51.560;4.642;2023-06-22T07:25:57;10.73;;;5.47;;
68250;SDS011;55066;51.560;4.642;2023-06-22T07:28:27;11.32;;;6.20;;
68250;SDS011;55066;51.560;4.642;2023-06-22T07:30:52;11.70;;;5.80;;
68250;SDS011;55066;51.560;4.642;2023-06-22T07:33:18;9.93;;;6.00;;
68250;SDS011;55066;51.560;4.642;2023-06-22T07:35:44;9.25;;;5.07;;
68250;SDS011;55066;51.560;4.642;2023-06-22T07:38:09;10.20;;;5.73;;
68250;SDS011;55066;51.560;4.642;2023-06-22T07:40:35;11.13;;;5.50;;
68250;SDS011;55066;51.560;4.642;2023-06-22T07:43:00;11.07;;;5.07;;
68250;SDS011;55066;51.560;4.642;2023-06-22T07:45:26;14.52;;;5.10;;
68250;SDS011;55066;51.560;4.642;2023-06-22T07:47:51;10.33;;;4.50;;
68250;SDS011;55066;51.560;4.642;2023-06-22T07:50:17;8.83;;;5.00;;
68250;SDS011;55066;51.560;4.642;2023-06-22T07:52:42;8.25;;;4.50;;
68250;SDS011;55066;51.560;4.642;2023-06-22T07:55:08;8.63;;;4.60;;
68250;SDS011;55066;51.560;4.642;2023-06-22T07:57:33;8.82;;;4.75;;
68250;SDS011;55066;51.560;4.642;2023-06-22T07:59:59;16.80;;;4.33;;
68250;SDS011;55066;51.560;4.642;2023-06-22T08:02:25;13.65;;;4.95;;
68250;SDS011;55066;51.560;4.642;2023-06-22T08:04:51;9.40;;;4.77;;
68250;SDS011;55066;51.560;4.642;2023-06-22T08:07:17;9.55;;;4.32;;
68250;SDS011;55066;51.560;4.642;2023-06-22T08:09:47;9.52;;;4.32;;
68250;SDS011;55066;51.560;4.642;2023-06-22T08:12:14;11.50;;;4.40;;
68250;SDS011;55066;51.560;4.642;2023-06-22T08:14:41;7.78;;;4.15;;
68250;SDS011;55066;51.560;4.642;2023-06-22T08:17:08;7.85;;;4.10;;
68250;SDS011;55066;51.560;4.642;2023-06-22T08:19:33;7.13;;;4.43;;
68250;SDS011;55066;51.560;4.642;2023-06-22T08:21:59;8.63;;;4.20;;
68250;SDS011;55066;51.560;4.642;2023-06-22T08:24:25;7.88;;;4.00;;
68250;SDS011;55066;51.560;4.642;2023-06-22T08:26:51;8.40;;;3.90;;
68250;SDS011;55066;51.560;4.642;2023-06-22T08:29:17;8.73;;;4.20;;
68250;SDS011;55066;51.560;4.642;2023-06-22T08:31:42;8.13;;;4.33;;
68250;SDS011;55066;51.560;4.642;2023-06-22T08:34:07;10.30;;;5.30;;
68250;SDS011;55066;51.560;4.642;2023-06-22T08:36:33;10.32;;;5.35;;
68250;SDS011;55066;51.560;4.642;2023-06-22T08:39:06;10.53;;;4.90;;
68250;SDS011;55066;51.560;4.642;2023-06-22T08:41:32;9.85;;;5.05;;
68250;SDS011;55066;51.560;4.642;2023-06-22T08:43:57;9.90;;;5.00;;
68250;SDS011;55066;51.560;4.642;2023-06-22T08:46:24;9.98;;;4.90;;
68250;SDS011;55066;51.560;4.642;2023-06-22T08:48:55;9.93;;;4.87;;
68250;SDS011;55066;51.560;4.642;2023-06-22T08:51:24;9.32;;;5.25;;
68250;SDS011;55066;51.560;4.642;2023-06-22T08:53:49;9.67;;;5.90;;
68250;SDS011;55066;51.560;4.642;2023-06-22T08:56:15;10.02;;;5.95;;
68250;SDS011;55066;51.560;4.642;2023-06-22T08:58:40;11.70;;;6.23;;
68250;SDS011;55066;51.560;4.642;2023-06-22T09:01:06;8.80;;;5.43;;
68250;SDS011;55066;51.560;4.642;2023-06-22T09:03:31;12.63;;;6.47;;
68250;SDS011;55066;51.560;4.642;2023-06-22T09:05:58;13.87;;;7.10;;
68250;SDS011;55066;51.560;4.642;2023-06-22T09:08:23;12.48;;;7.32;;
68250;SDS011;55066;51.560;4.642;2023-06-22T09:10:49;12.27;;;7.33;;
68250;SDS011;55066;51.560;4.642;2023-06-22T09:13:14;12.20;;;7.15;;
68250;SDS011;55066;51.560;4.642;2023-06-22T09:15:40;11.97;;;7.70;;
68250;SDS011;55066;51.560;4.642;2023-06-22T09:18:05;14.47;;;7.87;;
68250;SDS011;55066;51.560;4.642;2023-06-22T09:20:36;12.80;;;7.78;;
68250;SDS011;55066;51.560;4.642;2023-06-22T09:23:01;13.13;;;8.32;;
68250;SDS011;55066;51.560;4.642;2023-06-22T09:25:27;13.73;;;7.80;;
68250;SDS011;55066;51.560;4.642;2023-06-22T09:27:52;15.30;;;8.13;;
68250;SDS011;55066;51.560;4.642;2023-06-22T09:30:20;15.88;;;8.77;;
68250;SDS011;55066;51.560;4.642;2023-06-22T09:32:46;16.52;;;8.25;;
68250;SDS011;55066;51.560;4.642;2023-06-22T09:35:12;14.17;;;8.77;;
68250;SDS011;55066;51.560;4.642;2023-06-22T09:37:41;17.25;;;9.18;;
68250;SDS011;55066;51.560;4.642;2023-06-22T09:40:07;14.00;;;9.27;;
68250;SDS011;55066;51.560;4.642;2023-06-22T09:42:36;13.98;;;8.50;;
68250;SDS011;55066;51.560;4.642;2023-06-22T09:45:04;15.32;;;9.95;;
68250;SDS011;55066;51.560;4.642;2023-06-22T09:47:30;19.33;;;9.30;;
68250;SDS011;55066;51.560;4.642;2023-06-22T09:49:56;17.03;;;9.43;;
68250;SDS011;55066;51.560;4.642;2023-06-22T09:52:21;15.50;;;10.10;;
68250;SDS011;55066;51.560;4.642;2023-06-22T09:54:47;15.90;;;10.40;;
68250;SDS011;55066;51.560;4.642;2023-06-22T09:57:13;16.60;;;10.80;;
68250;SDS011;55066;51.560;4.642;2023-06-22T09:59:38;20.70;;;11.33;;
68250;SDS011;55066;51.560;4.642;2023-06-22T10:02:08;19.55;;;11.68;;
68250;SDS011;55066;51.560;4.642;2023-06-22T10:04:34;19.10;;;11.80;;
68250;SDS011;55066;51.560;4.642;2023-06-22T10:07:00;23.85;;;12.68;;
68250;SDS011;55066;51.560;4.642;2023-06-22T10:09:26;23.75;;;12.70;;
68250;SDS011;55066;51.560;4.642;2023-06-22T10:11:51;19.37;;;11.93;;
68250;SDS011;55066;51.560;4.642;2023-06-22T10:14:19;18.45;;;12.32;;
68250;SDS011;55066;51.560;4.642;2023-06-22T10:16:44;20.50;;;12.60;;
68250;SDS011;55066;51.560;4.642;2023-06-22T10:19:11;22.37;;;13.47;;
68250;SDS011;55066;51.560;4.642;2023-06-22T10:21:36;22.30;;;12.80;;
68250;SDS011;55066;51.560;4.642;2023-06-22T10:24:03;19.85;;;12.48;;
68250;SDS011;55066;51.560;4.642;2023-06-22T10:26:32;21.00;;;12.57;;
68250;SDS011;55066;51.560;4.642;2023-06-22T10:28:57;19.23;;;12.98;;
68250;SDS011;55066;51.560;4.642;2023-06-22T10:31:23;21.53;;;13.20;;
68250;SDS011;55066;51.560;4.642;2023-06-22T10:33:49;25.88;;;13.35;;
68250;SDS011;55066;51.560;4.642;2023-06-22T10:36:14;20.37;;;13.53;;
68250;SDS011;55066;51.560;4.642;2023-06-22T10:38:40;19.57;;;12.77;;
68250;SDS011;55066;51.560;4.642;2023-06-22T10:41:06;24.77;;;13.82;;
68250;SDS011;55066;51.560;4.642;2023-06-22T10:43:32;19.53;;;12.77;;
68250;SDS011;55066;51.560;4.642;2023-06-22T10:46:00;22.70;;;13.63;;
68250;SDS011;55066;51.560;4.642;2023-06-22T10:48:26;22.27;;;13.20;;
68250;SDS011;55066;51.560;4.642;2023-06-22T10:50:51;25.23;;;13.80;;
68250;SDS011;55066;51.560;4.642;2023-06-22T10:53:18;26.03;;;13.03;;
68250;SDS011;55066;51.560;4.642;2023-06-22T10:55:43;21.73;;;13.50;;
68250;SDS011;55066;51.560;4.642;2023-06-22T10:58:09;23.43;;;14.30;;
68250;SDS011;55066;51.560;4.642;2023-06-22T11:00:34;24.07;;;15.10;;
68250;SDS011;55066;51.560;4.642;2023-06-22T11:03:00;23.97;;;14.97;;
68250;SDS011;55066;51.560;4.642;2023-06-22T11:05:25;24.17;;;14.67;;
68250;SDS011;55066;51.560;4.642;2023-06-22T11:07:51;24.43;;;15.03;;
68250;SDS011;55066;51.560;4.642;2023-06-22T11:10:16;25.30;;;15.20;;
68250;SDS011;55066;51.560;4.642;2023-06-22T11:12:42;26.27;;;15.43;;
68250;SDS011;55066;51.560;4.642;2023-06-22T11:15:08;25.87;;;15.47;;
68250;SDS011;55066;51.560;4.642;2023-06-22T11:17:34;25.13;;;15.52;;
68250;SDS011;55066;51.560;4.642;2023-06-22T11:19:59;27.23;;;15.83;;
68250;SDS011;55066;51.560;4.642;2023-06-22T11:22:25;25.33;;;15.77;;
68250;SDS011;55066;51.560;4.642;2023-06-22T11:24:50;26.73;;;16.43;;
68250;SDS011;55066;51.560;4.642;2023-06-22T11:27:16;27.17;;;17.02;;
68250;SDS011;55066;51.560;4.642;2023-06-22T11:29:43;28.20;;;17.03;;
68250;SDS011;55066;51.560;4.642;2023-06-22T11:32:08;27.13;;;17.23;;
68250;SDS011;55066;51.560;4.642;2023-06-22T11:34:34;29.77;;;17.50;;
68250;SDS011;55066;51.560;4.642;2023-06-22T11:36:59;27.47;;;17.40;;
68250;SDS011;55066;51.560;4.642;2023-06-22T11:39:25;27.50;;;17.33;;
68250;SDS011;55066;51.560;4.642;2023-06-22T11:41:51;26.92;;;16.27;;
68250;SDS011;55066;51.560;4.642;2023-06-22T11:44:17;18.00;;;10.83;;
68250;SDS011;55066;51.560;4.642;2023-06-22T11:46:43;16.60;;;10.38;;
68250;SDS011;55066;51.560;4.642;2023-06-22T11:49:08;20.80;;;10.10;;
68250;SDS011;55066;51.560;4.642;2023-06-22T11:51:34;15.93;;;9.90;;
68250;SDS011;55066;51.560;4.642;2023-06-22T11:53:59;17.07;;;10.23;;
68250;SDS011;55066;51.560;4.642;2023-06-22T11:56:25;17.08;;;11.13;;
68250;SDS011;55066;51.560;4.642;2023-06-22T11:58:50;19.37;;;11.80;;
68250;SDS011;55066;51.560;4.642;2023-06-22T12:01:16;18.67;;;12.65;;
68250;SDS011;55066;51.560;4.642;2023-06-22T12:03:43;22.17;;;13.43;;
68250;SDS011;55066;51.560;4.642;2023-06-22T12:06:09;23.10;;;14.30;;
68250;SDS011;55066;51.560;4.642;2023-06-22T12:08:34;23.27;;;14.77;;
68250;SDS011;55066;51.560;4.642;2023-06-22T12:11:00;26.20;;;15.70;;
68250;SDS011;55066;51.560;4.642;2023-06-22T12:13:25;25.80;;;15.83;;
68250;SDS011;55066;51.560;4.642;2023-06-22T12:15:51;25.67;;;16.53;;
68250;SDS011;55066;51.560;4.642;2023-06-22T12:18:17;27.40;;;17.35;;
68250;SDS011;55066;51.560;4.642;2023-06-22T12:20:45;26.70;;;17.13;;
68250;SDS011;55066;51.560;4.642;2023-06-22T12:23:11;26.90;;;17.33;;
68250;SDS011;55066;51.560;4.642;2023-06-22T12:25:37;28.87;;;17.77;;
68250;SDS011;55066;51.560;4.642;2023-06-22T12:28:02;30.38;;;18.73;;
68250;SDS011;55066;51.560;4.642;2023-06-22T12:30:30;30.20;;;17.57;;
68250;SDS011;55066;51.560;4.642;2023-06-22T12:32:56;28.85;;;18.15;;
68250;SDS011;55066;51.560;4.642;2023-06-22T12:35:22;31.33;;;17.75;;
68250;SDS011;55066;51.560;4.642;2023-06-22T12:37:47;30.73;;;17.17;;
68250;SDS011;55066;51.560;4.642;2023-06-22T12:40:13;29.97;;;17.93;;
68250;SDS011;55066;51.560;4.642;2023-06-22T12:42:38;28.90;;;17.52;;
68250;SDS011;55066;51.560;4.642;2023-06-22T12:45:05;26.77;;;17.03;;
68250;SDS011;55066;51.560;4.642;2023-06-22T12:47:31;28.30;;;17.90;;
68250;SDS011;55066;51.560;4.642;2023-06-22T12:49:56;29.77;;;17.23;;
68250;SDS011;55066;51.560;4.642;2023-06-22T12:52:23;27.58;;;17.35;;
68250;SDS011;55066;51.560;4.642;2023-06-22T12:54:48;25.00;;;16.10;;
68250;SDS011;55066;51.560;4.642;2023-06-22T12:57:14;22.73;;;14.45;;
68250;SDS011;55066;51.560;4.642;2023-06-22T12:59:39;19.43;;;12.90;;
68250;SDS011;55066;51.560;4.642;2023-06-22T13:02:05;20.47;;;12.20;;
68250;SDS011;55066;51.560;4.642;2023-06-22T13:04:31;17.93;;;12.03;;
68250;SDS011;55066;51.560;4.642;2023-06-22T13:06:57;19.73;;;12.73;;
68250;SDS011;55066;51.560;4.642;2023-06-22T13:09:22;19.17;;;12.20;;
68250;SDS011;55066;51.560;4.642;2023-06-22T13:11:48;21.83;;;12.33;;
68250;SDS011;55066;51.560;4.642;2023-06-22T13:14:13;19.53;;;11.70;;
68250;SDS011;55066;51.560;4.642;2023-06-22T13:16:39;19.85;;;12.13;;
68250;SDS011;55066;51.560;4.642;2023-06-22T13:19:04;19.07;;;12.27;;
68250;SDS011;55066;51.560;4.642;2023-06-22T13:21:30;20.30;;;13.57;;
68250;SDS011;55066;51.560;4.642;2023-06-22T13:23:56;23.50;;;13.70;;
68250;SDS011;55066;51.560;4.642;2023-06-22T13:26:21;24.90;;;14.20;;
68250;SDS011;55066;51.560;4.642;2023-06-22T13:28:47;22.17;;;14.98;;
68250;SDS011;55066;51.560;4.642;2023-06-22T13:31:12;21.47;;;14.93;;
68250;SDS011;55066;51.560;4.642;2023-06-22T13:33:38;21.40;;;13.90;;
68250;SDS011;55066;51.560;4.642;2023-06-22T13:36:05;22.90;;;15.27;;
68250;SDS011;55066;51.560;4.642;2023-06-22T13:38:31;22.23;;;15.30;;
68250;SDS011;55066;51.560;4.642;2023-06-22T13:40:57;22.55;;;15.05;;
68250;SDS011;55066;51.560;4.642;2023-06-22T13:43:24;25.02;;;15.73;;
68250;SDS011;55066;51.560;4.642;2023-06-22T13:45:52;23.55;;;15.65;;
68250;SDS011;55066;51.560;4.642;2023-06-22T13:48:17;21.20;;;14.47;;
68250;SDS011;55066;51.560;4.642;2023-06-22T13:50:43;20.57;;;14.23;;
68250;SDS011;55066;51.560;4.642;2023-06-22T13:53:08;23.40;;;16.08;;
68250;SDS011;55066;51.560;4.642;2023-06-22T13:55:34;26.60;;;15.63;;
68250;SDS011;55066;51.560;4.642;2023-06-22T13:57:59;27.25;;;16.27;;
68250;SDS011;55066;51.560;4.642;2023-06-22T14:00:25;22.20;;;14.73;;
68250;SDS011;55066;51.560;4.642;2023-06-22T14:02:50;24.13;;;16.10;;
68250;SDS011;55066;51.560;4.642;2023-06-22T14:05:17;25.35;;;15.82;;
68250;SDS011;55066;51.560;4.642;2023-06-22T14:07:42;21.77;;;15.30;;
68250;SDS011;55066;51.560;4.642;2023-06-22T14:10:08;23.93;;;15.20;;
68250;SDS011;55066;51.560;4.642;2023-06-22T14:12:34;22.92;;;16.23;;
68250;SDS011;55066;51.560;4.642;2023-06-22T14:15:01;23.08;;;16.50;;
68250;SDS011;55066;51.560;4.642;2023-06-22T14:17:26;24.63;;;16.27;;
68250;SDS011;55066;51.560;4.642;2023-06-22T14:19:52;27.30;;;16.77;;
68250;SDS011;55066;51.560;4.642;2023-06-22T14:22:18;27.73;;;17.10;;
68250;SDS011;55066;51.560;4.642;2023-06-22T14:24:44;27.15;;;17.52;;
68250;SDS011;55066;51.560;4.642;2023-06-22T14:27:11;23.37;;;16.07;;
68250;SDS011;55066;51.560;4.642;2023-06-22T14:29:36;26.88;;;17.88;;
68250;SDS011;55066;51.560;4.642;2023-06-22T14:32:01;25.53;;;17.77;;
68250;SDS011;55066;51.560;4.642;2023-06-22T14:34:28;28.13;;;17.00;;
68250;SDS011;55066;51.560;4.642;2023-06-22T14:36:54;32.13;;;18.35;;